• Join FlightAware (Why Join?)
  • Login
  • US Flag 
05:56AM EDT


 

Airport Tracker/Info


-or-


 

Live Flight TrackerFlight Track Log ✈ EGF3185 ✈ 17-Nov-2013 ✈ KBTR - KDFW

Flight Track Log - Related Links

Times and Time Zones

All times are in EST time to prevent confusion due to time zone crossing. See the EGF3185 flight status page for this flight to view local times or setup timezone preferences in your user account.

Time Position Orientation Groundspeed Altitude Reporting Facility
EST Latitude Longitude Course Direction KTS MPH feet Rate Location/Type
06:40PM 30.5292 -91.2297 292° West 246 283 28,000  Level Houston Center
06:41PM 30.6502 -91.4206 319° Northwest  Level Estimated
06:41PM 30.5764 -91.2817 317° Northwest 254 292 5,500  Level Houston Center
06:42PM 30.6892 -91.5110 323° Northwest  Level Estimated
06:42PM 30.6286 -91.3397 316° Northwest 259 298 8,000  Level Houston Center
06:43PM 30.7741 -91.5331 347° North  Level FlightAware Approximate
06:43PM 30.6686 -91.4117 303° West 265 305 10,000  Level Houston Center
06:44PM 30.8120 -91.6242 291° West  Level Estimated
06:44PM 30.7183 -91.5047 302° West 283 326 11,700  Level Houston Center
06:45PM 30.7661 -91.5936 302° West 317 365 12,700 960 Climbing Houston Center
06:46PM 30.8169 -91.6858 303° West 336 387 13,800 960 Climbing Houston Center
06:47PM 30.8703 -91.7808 303° West 348 400 14,800 960 Climbing Houston Center
06:48PM 30.9222 -91.8775 302° West 352 405 15,800 1,020 Climbing Houston Center
06:49PM 30.9867 -91.9953 303° West 359 413 17,000 1,020 Climbing Houston Center
06:50PM 31.0392 -92.0933 302° West 358 412 18,000 960 Climbing Houston Center
06:51PM 31.0922 -92.1911 302° West 357 411 19,100 960 Climbing Houston Center
06:52PM 31.1456 -92.2903 302° West 361 415 20,100 960 Climbing Houston Center
06:53PM 31.1994 -92.3908 302° West 366 421 21,100 1,320 Climbing Houston Center
06:54PM 31.2617 -92.5067 302° West 365 420 22,900 1,860 Climbing Houston Center
06:55PM 31.3003 -92.6125 293° West 346 398 25,000 1,500 Climbing Houston Center
06:56PM 31.3378 -92.7106 294° West 333 383 26,100 960 Climbing Houston Center
06:57PM 31.3747 -92.8106 293° West 336 387 27,100 720 Climbing Houston Center
06:58PM 31.4133 -92.9136 294° West 345 397 27,700 420 Climbing Houston Center
06:59PM 31.4542 -93.0228 294° West 364 419 28,000 120 Climbing Houston Center
07:00PM 31.5061 -93.1617 294° West 386 444 28,000  Level Houston Center
07:01PM 31.5508 -93.2817 294° West 401 461 28,000  Level Houston Center
07:03PM 31.5919 -93.3908 294° West 407 468 28,000  Level Houston Center
07:04PM 31.6472 -93.5392 294° West 413 475 28,000  Level Houston Center
07:05PM 31.6844 -93.6450 292° West 408 470 28,000  Level Houston Center
07:06PM 31.7389 -93.7911 294° West 407 468 28,000  Level Houston Center
07:07PM 31.7694 -93.9181 286° West 406 467 28,000  Level Houston Center
07:08PM 31.7919 -94.0381 282° West 405 466 28,000  Level Houston Center
07:09PM 31.8183 -94.1667 284° West 406 467 28,000  Level Houston Center
07:10PM 31.8447 -94.3028 283° West 404 465 28,000  Level Houston Center
07:11PM 31.8747 -94.4569 283° West 405 466 28,000  Level Houston Center
07:12PM 31.8981 -94.5864 282° West 406 467 28,000  Level Houston Center
07:13PM 31.9225 -94.7142 283° West 405 466 28,000  Level Houston Center
07:14PM 31.8783 -94.8283 246° West 395 455 28,000  Level Houston Center
07:15PM 31.8111 -94.9258 231° Southwest 387 445 28,000  Level Houston Center
07:16PM 31.7331 -95.0356 230° Southwest 371 427 28,000 -120 Level Houston Center
07:17PM 31.6906 -95.1881 252° West 381 438 27,800 -540 Descending Fort Worth Center
07:18PM 31.7406 -95.3006 298° West 391 450 26,800 -1,020 Descending Fort Worth Center
07:19PM 31.7928 -95.4067 300° West 380 437 25,800 -1,020 Descending Fort Worth Center
07:21PM 31.8456 -95.5144 300° West 380 437 24,700 -1,260 Descending Fort Worth Center
07:22PM 31.8978 -95.6200 300° West 376 433 23,200 -1,560 Descending Fort Worth Center
07:23PM 31.9500 -95.7286 300° West 357 411 21,500 -1,800 Descending Fort Worth Center
07:24PM 32.0017 -95.8358 300° West 374 430 19,600 -2,040 Descending Fort Worth Center
07:25PM 32.0667 -95.9675 300° West 388 447 17,300 -2,040 Descending Fort Worth Center
07:26PM 32.1183 -96.0728 300° West 374 430 15,400 -1,740 Descending Fort Worth Center
07:27PM 32.1658 -96.1742 299° West 358 412 13,800 -1,740 Descending Fort Worth Center
07:28PM 32.2325 -96.2711 309° West 352 405 11,900 -1,380 Descending Fort Worth Center
07:29PM 32.2975 -96.3472 315° West 330 380 11,000 -480 Descending Fort Worth Center
07:30PM 32.3647 -96.4206 317° Northwest 329 379 11,000 -240 Level Fort Worth Center
07:31PM 32.4306 -96.4872 319° Northwest 289 333 10,500 -1,260 Descending Fort Worth Center
07:32PM 32.4861 -96.5458 318° Northwest 271 312 8,500 -2,220 Descending Fort Worth Center
07:33PM 32.5442 -96.6083 318° Northwest 264 304 6,000 -1,740 Descending Fort Worth Center
07:34PM 32.6014 -96.6675 319° Northwest 271 312 5,000 -540 Descending Fort Worth Center
07:35PM 32.6500 -96.7167 320° Northwest 260 299 5,100  Climbing Dallas / Fort Worth TRACON
07:36PM 32.7000 -96.7667 320° Northwest 260 299 5,100 -360 Level Dallas / Fort Worth TRACON
07:37PM 32.7500 -96.8167 320° Northwest 243 280 4,400 -900 Descending Dallas / Fort Worth TRACON
07:38PM 32.7833 -96.8833 301° West 209 241 3,300 -1,080 Descending Dallas / Fort Worth TRACON
07:39PM 32.8333 -96.9167 331° Northwest 182 209 2,300 -900 Descending Dallas / Fort Worth TRACON
07:40PM 32.8500 -96.9500 301° West 138 159 1,600 -720 Descending Dallas / Fort Worth TRACON
07:41PM 32.8833 -96.9833 320° Northwest 132 152 900 -720 Descending Dallas / Fort Worth TRACON
07:43PM 32.8833 -97.0333 308° West  Level FlightAware Approximate
07:50PM 32.8968 -97.0380 308° West  Level Estimated